sensor_id;sensor_type;location;lat;lon;timestamp;P1;durP1;ratioP1;P2;durP2;ratioP2
51800;SDS011;37855;53.204;6.568;2023-08-17T00:01:43;9.05;;;2.40;;
51800;SDS011;37855;53.204;6.568;2023-08-17T00:04:09;8.87;;;2.50;;
51800;SDS011;37855;53.204;6.568;2023-08-17T00:06:35;8.20;;;2.40;;
51800;SDS011;37855;53.204;6.568;2023-08-17T00:09:01;7.15;;;2.35;;
51800;SDS011;37855;53.204;6.568;2023-08-17T00:11:28;9.27;;;2.42;;
51800;SDS011;37855;53.204;6.568;2023-08-17T00:13:54;7.60;;;2.20;;
51800;SDS011;37855;53.204;6.568;2023-08-17T00:16:20;8.07;;;2.30;;
51800;SDS011;37855;53.204;6.568;2023-08-17T00:18:45;6.90;;;1.98;;
51800;SDS011;37855;53.204;6.568;2023-08-17T00:21:11;7.57;;;2.20;;
51800;SDS011;37855;53.204;6.568;2023-08-17T00:23:37;7.93;;;2.15;;
51800;SDS011;37855;53.204;6.568;2023-08-17T00:26:03;6.87;;;1.90;;
51800;SDS011;37855;53.204;6.568;2023-08-17T00:28:29;6.28;;;2.20;;
51800;SDS011;37855;53.204;6.568;2023-08-17T00:30:54;5.27;;;2.20;;
51800;SDS011;37855;53.204;6.568;2023-08-17T00:33:20;6.13;;;2.13;;
51800;SDS011;37855;53.204;6.568;2023-08-17T00:35:45;8.97;;;1.97;;
51800;SDS011;37855;53.204;6.568;2023-08-17T00:38:12;5.47;;;2.00;;
51800;SDS011;37855;53.204;6.568;2023-08-17T00:40:37;6.63;;;2.00;;
51800;SDS011;37855;53.204;6.568;2023-08-17T00:43:03;6.50;;;2.00;;
51800;SDS011;37855;53.204;6.568;2023-08-17T00:45:30;9.48;;;2.33;;
51800;SDS011;37855;53.204;6.568;2023-08-17T00:47:56;7.70;;;2.00;;
51800;SDS011;37855;53.204;6.568;2023-08-17T00:50:25;6.90;;;2.17;;
51800;SDS011;37855;53.204;6.568;2023-08-17T00:52:52;5.33;;;2.07;;
51800;SDS011;37855;53.204;6.568;2023-08-17T00:55:18;8.07;;;2.20;;
51800;SDS011;37855;53.204;6.568;2023-08-17T00:57:46;5.90;;;2.08;;
51800;SDS011;37855;53.204;6.568;2023-08-17T01:00:12;5.97;;;2.20;;
51800;SDS011;37855;53.204;6.568;2023-08-17T01:02:41;6.50;;;2.13;;
51800;SDS011;37855;53.204;6.568;2023-08-17T01:05:08;5.13;;;2.07;;
51800;SDS011;37855;53.204;6.568;2023-08-17T01:07:34;6.43;;;2.03;;
51800;SDS011;37855;53.204;6.568;2023-08-17T01:10:01;7.10;;;2.45;;
51800;SDS011;37855;53.204;6.568;2023-08-17T01:12:31;7.65;;;2.30;;
51800;SDS011;37855;53.204;6.568;2023-08-17T01:15:05;8.40;;;2.50;;
51800;SDS011;37855;53.204;6.568;2023-08-17T01:18:11;5.63;;;2.40;;
51800;SDS011;37855;53.204;6.568;2023-08-17T01:20:47;5.57;;;2.20;;
51800;SDS011;37855;53.204;6.568;2023-08-17T01:23:14;7.72;;;2.45;;
51800;SDS011;37855;53.204;6.568;2023-08-17T01:25:40;8.13;;;2.45;;
51800;SDS011;37855;53.204;6.568;2023-08-17T01:28:06;7.20;;;2.20;;
51800;SDS011;37855;53.204;6.568;2023-08-17T01:30:33;6.65;;;2.22;;
51800;SDS011;37855;53.204;6.568;2023-08-17T01:33:54;10.13;;;2.78;;
51800;SDS011;37855;53.204;6.568;2023-08-17T01:36:22;6.68;;;2.28;;
51800;SDS011;37855;53.204;6.568;2023-08-17T01:38:51;6.22;;;2.60;;
51800;SDS011;37855;53.204;6.568;2023-08-17T01:41:17;7.83;;;2.30;;
51800;SDS011;37855;53.204;6.568;2023-08-17T01:43:45;7.47;;;2.55;;
51800;SDS011;37855;53.204;6.568;2023-08-17T01:46:15;8.30;;;2.90;;
51800;SDS011;37855;53.204;6.568;2023-08-17T01:48:45;6.88;;;2.58;;
51800;SDS011;37855;53.204;6.568;2023-08-17T01:51:16;7.30;;;2.58;;
51800;SDS011;37855;53.204;6.568;2023-08-17T01:53:47;7.20;;;2.43;;
51800;SDS011;37855;53.204;6.568;2023-08-17T01:56:13;8.07;;;2.40;;
51800;SDS011;37855;53.204;6.568;2023-08-17T01:58:39;8.20;;;2.80;;
51800;SDS011;37855;53.204;6.568;2023-08-17T02:01:06;7.47;;;2.40;;
51800;SDS011;37855;53.204;6.568;2023-08-17T02:03:31;8.53;;;2.70;;
51800;SDS011;37855;53.204;6.568;2023-08-17T02:05:58;5.93;;;2.97;;
51800;SDS011;37855;53.204;6.568;2023-08-17T02:08:24;9.32;;;2.47;;
51800;SDS011;37855;53.204;6.568;2023-08-17T02:10:50;8.15;;;2.75;;
51800;SDS011;37855;53.204;6.568;2023-08-17T02:13:18;8.50;;;3.07;;
51800;SDS011;37855;53.204;6.568;2023-08-17T02:15:45;9.55;;;2.58;;
51800;SDS011;37855;53.204;6.568;2023-08-17T02:18:12;8.68;;;2.72;;
51800;SDS011;37855;53.204;6.568;2023-08-17T02:20:38;7.15;;;2.80;;
51800;SDS011;37855;53.204;6.568;2023-08-17T02:23:03;10.07;;;2.37;;
51800;SDS011;37855;53.204;6.568;2023-08-17T02:25:29;6.80;;;2.50;;
51800;SDS011;37855;53.204;6.568;2023-08-17T02:28:00;6.88;;;2.70;;
51800;SDS011;37855;53.204;6.568;2023-08-17T02:30:27;6.03;;;2.43;;
51800;SDS011;37855;53.204;6.568;2023-08-17T02:32:53;7.38;;;2.75;;
51800;SDS011;37855;53.204;6.568;2023-08-17T02:35:23;5.68;;;2.30;;
51800;SDS011;37855;53.204;6.568;2023-08-17T02:37:48;7.87;;;2.27;;
51800;SDS011;37855;53.204;6.568;2023-08-17T02:40:14;6.30;;;2.13;;
51800;SDS011;37855;53.204;6.568;2023-08-17T02:42:40;8.37;;;2.53;;
51800;SDS011;37855;53.204;6.568;2023-08-17T02:45:06;6.87;;;2.00;;
51800;SDS011;37855;53.204;6.568;2023-08-17T02:47:32;6.70;;;2.10;;
51800;SDS011;37855;53.204;6.568;2023-08-17T02:49:58;7.32;;;2.33;;
51800;SDS011;37855;53.204;6.568;2023-08-17T02:52:24;7.50;;;2.00;;
51800;SDS011;37855;53.204;6.568;2023-08-17T02:54:49;7.10;;;2.10;;
51800;SDS011;37855;53.204;6.568;2023-08-17T02:57:15;7.37;;;2.20;;
51800;SDS011;37855;53.204;6.568;2023-08-17T02:59:41;6.90;;;2.05;;
51800;SDS011;37855;53.204;6.568;2023-08-17T03:02:06;8.33;;;2.20;;
51800;SDS011;37855;53.204;6.568;2023-08-17T03:04:32;6.13;;;1.80;;
51800;SDS011;37855;53.204;6.568;2023-08-17T03:06:58;6.40;;;1.97;;
51800;SDS011;37855;53.204;6.568;2023-08-17T03:09:24;9.77;;;2.03;;
51800;SDS011;37855;53.204;6.568;2023-08-17T03:11:50;5.78;;;1.88;;
51800;SDS011;37855;53.204;6.568;2023-08-17T03:14:16;5.80;;;2.20;;
51800;SDS011;37855;53.204;6.568;2023-08-17T03:16:41;7.38;;;2.42;;
51800;SDS011;37855;53.204;6.568;2023-08-17T03:19:07;8.67;;;2.30;;
51800;SDS011;37855;53.204;6.568;2023-08-17T03:21:35;8.60;;;2.03;;
51800;SDS011;37855;53.204;6.568;2023-08-17T03:24:02;6.78;;;1.80;;
51800;SDS011;37855;53.204;6.568;2023-08-17T03:26:28;5.95;;;2.30;;
51800;SDS011;37855;53.204;6.568;2023-08-17T03:28:54;9.95;;;2.00;;
51800;SDS011;37855;53.204;6.568;2023-08-17T03:31:20;9.80;;;2.20;;
51800;SDS011;37855;53.204;6.568;2023-08-17T03:33:46;5.65;;;2.00;;
51800;SDS011;37855;53.204;6.568;2023-08-17T03:36:13;5.40;;;1.77;;
51800;SDS011;37855;53.204;6.568;2023-08-17T03:38:38;6.90;;;2.00;;
51800;SDS011;37855;53.204;6.568;2023-08-17T03:41:06;6.10;;;1.90;;
51800;SDS011;37855;53.204;6.568;2023-08-17T03:43:32;8.20;;;2.67;;
51800;SDS011;37855;53.204;6.568;2023-08-17T03:45:58;6.30;;;1.87;;
51800;SDS011;37855;53.204;6.568;2023-08-17T03:48:23;8.45;;;2.10;;
51800;SDS011;37855;53.204;6.568;2023-08-17T03:50:52;4.65;;;1.80;;
51800;SDS011;37855;53.204;6.568;2023-08-17T03:53:19;7.13;;;2.07;;
51800;SDS011;37855;53.204;6.568;2023-08-17T03:55:46;7.57;;;1.95;;
51800;SDS011;37855;53.204;6.568;2023-08-17T03:58:12;5.50;;;2.00;;
51800;SDS011;37855;53.204;6.568;2023-08-17T04:00:39;7.68;;;2.00;;
51800;SDS011;37855;53.204;6.568;2023-08-17T04:03:05;6.10;;;1.90;;
51800;SDS011;37855;53.204;6.568;2023-08-17T04:05:31;8.25;;;2.20;;
51800;SDS011;37855;53.204;6.568;2023-08-17T04:07:59;5.68;;;2.00;;
51800;SDS011;37855;53.204;6.568;2023-08-17T04:10:28;7.53;;;2.10;;
51800;SDS011;37855;53.204;6.568;2023-08-17T04:12:55;4.57;;;1.90;;
51800;SDS011;37855;53.204;6.568;2023-08-17T04:15:23;6.70;;;2.47;;
51800;SDS011;37855;53.204;6.568;2023-08-17T04:17:49;5.57;;;2.05;;
51800;SDS011;37855;53.204;6.568;2023-08-17T04:20:15;7.90;;;2.30;;
51800;SDS011;37855;53.204;6.568;2023-08-17T04:22:41;6.97;;;2.00;;
51800;SDS011;37855;53.204;6.568;2023-08-17T04:25:06;6.55;;;2.20;;
51800;SDS011;37855;53.204;6.568;2023-08-17T04:27:32;6.70;;;2.00;;
51800;SDS011;37855;53.204;6.568;2023-08-17T04:30:00;6.63;;;2.40;;
51800;SDS011;37855;53.204;6.568;2023-08-17T04:32:26;9.77;;;2.40;;
51800;SDS011;37855;53.204;6.568;2023-08-17T04:34:52;5.50;;;2.00;;
51800;SDS011;37855;53.204;6.568;2023-08-17T04:37:17;6.40;;;2.53;;
51800;SDS011;37855;53.204;6.568;2023-08-17T04:39:43;6.70;;;2.27;;
51800;SDS011;37855;53.204;6.568;2023-08-17T04:42:09;7.38;;;2.47;;
51800;SDS011;37855;53.204;6.568;2023-08-17T04:44:35;7.40;;;2.72;;
51800;SDS011;37855;53.204;6.568;2023-08-17T04:47:01;7.83;;;2.13;;
51800;SDS011;37855;53.204;6.568;2023-08-17T04:49:27;5.47;;;2.30;;
51800;SDS011;37855;53.204;6.568;2023-08-17T04:51:53;5.77;;;2.37;;
51800;SDS011;37855;53.204;6.568;2023-08-17T04:54:18;7.22;;;2.50;;
51800;SDS011;37855;53.204;6.568;2023-08-17T04:56:44;7.77;;;2.30;;
51800;SDS011;37855;53.204;6.568;2023-08-17T04:59:10;7.53;;;2.22;;
51800;SDS011;37855;53.204;6.568;2023-08-17T05:01:35;6.73;;;2.20;;
51800;SDS011;37855;53.204;6.568;2023-08-17T05:04:02;6.17;;;2.47;;
51800;SDS011;37855;53.204;6.568;2023-08-17T05:06:28;6.18;;;2.45;;
51800;SDS011;37855;53.204;6.568;2023-08-17T05:08:54;8.88;;;2.70;;
51800;SDS011;37855;53.204;6.568;2023-08-17T05:11:20;7.03;;;2.42;;
51800;SDS011;37855;53.204;6.568;2023-08-17T05:13:46;8.53;;;2.30;;
51800;SDS011;37855;53.204;6.568;2023-08-17T05:16:12;6.68;;;2.40;;
51800;SDS011;37855;53.204;6.568;2023-08-17T05:18:37;9.10;;;2.67;;
51800;SDS011;37855;53.204;6.568;2023-08-17T05:21:03;5.90;;;1.98;;
51800;SDS011;37855;53.204;6.568;2023-08-17T05:23:29;7.87;;;2.20;;
51800;SDS011;37855;53.204;6.568;2023-08-17T05:25:55;6.85;;;2.38;;
51800;SDS011;37855;53.204;6.568;2023-08-17T05:28:20;7.65;;;2.15;;
51800;SDS011;37855;53.204;6.568;2023-08-17T05:30:46;8.57;;;2.63;;
51800;SDS011;37855;53.204;6.568;2023-08-17T05:33:12;8.20;;;2.30;;
51800;SDS011;37855;53.204;6.568;2023-08-17T05:35:38;7.60;;;2.20;;
51800;SDS011;37855;53.204;6.568;2023-08-17T05:38:03;9.07;;;2.50;;
51800;SDS011;37855;53.204;6.568;2023-08-17T05:40:30;8.00;;;2.40;;
51800;SDS011;37855;53.204;6.568;2023-08-17T05:42:56;5.18;;;2.13;;
51800;SDS011;37855;53.204;6.568;2023-08-17T05:45:21;7.25;;;2.38;;
51800;SDS011;37855;53.204;6.568;2023-08-17T05:47:47;8.50;;;2.10;;
51800;SDS011;37855;53.204;6.568;2023-08-17T05:50:13;8.02;;;2.42;;
51800;SDS011;37855;53.204;6.568;2023-08-17T05:52:40;7.53;;;2.07;;
51800;SDS011;37855;53.204;6.568;2023-08-17T05:55:06;7.25;;;2.25;;
51800;SDS011;37855;53.204;6.568;2023-08-17T05:57:32;10.50;;;2.30;;
51800;SDS011;37855;53.204;6.568;2023-08-17T05:59:58;10.05;;;2.50;;
51800;SDS011;37855;53.204;6.568;2023-08-17T06:02:24;9.00;;;1.80;;
51800;SDS011;37855;53.204;6.568;2023-08-17T06:04:49;9.13;;;2.35;;
51800;SDS011;37855;53.204;6.568;2023-08-17T06:07:15;6.80;;;1.80;;
51800;SDS011;37855;53.204;6.568;2023-08-17T06:09:41;11.55;;;3.03;;
51800;SDS011;37855;53.204;6.568;2023-08-17T06:12:06;12.07;;;2.60;;
51800;SDS011;37855;53.204;6.568;2023-08-17T06:14:32;5.10;;;1.77;;
51800;SDS011;37855;53.204;6.568;2023-08-17T06:16:59;7.70;;;2.13;;
51800;SDS011;37855;53.204;6.568;2023-08-17T06:19:25;6.38;;;2.30;;
51800;SDS011;37855;53.204;6.568;2023-08-17T06:21:51;4.43;;;1.60;;
51800;SDS011;37855;53.204;6.568;2023-08-17T06:24:17;6.93;;;2.03;;
51800;SDS011;37855;53.204;6.568;2023-08-17T06:26:43;9.05;;;2.10;;
51800;SDS011;37855;53.204;6.568;2023-08-17T06:29:10;7.55;;;1.77;;
51800;SDS011;37855;53.204;6.568;2023-08-17T06:31:36;5.43;;;1.77;;
51800;SDS011;37855;53.204;6.568;2023-08-17T06:34:02;7.70;;;1.80;;
51800;SDS011;37855;53.204;6.568;2023-08-17T06:36:31;8.90;;;1.90;;
51800;SDS011;37855;53.204;6.568;2023-08-17T06:38:57;6.90;;;2.00;;
51800;SDS011;37855;53.204;6.568;2023-08-17T06:41:23;7.47;;;1.93;;
51800;SDS011;37855;53.204;6.568;2023-08-17T06:43:50;7.45;;;2.35;;
51800;SDS011;37855;53.204;6.568;2023-08-17T06:46:15;7.93;;;1.85;;
51800;SDS011;37855;53.204;6.568;2023-08-17T06:48:42;5.85;;;1.63;;
51800;SDS011;37855;53.204;6.568;2023-08-17T06:51:08;8.00;;;1.80;;
51800;SDS011;37855;53.204;6.568;2023-08-17T06:53:34;5.53;;;1.90;;
51800;SDS011;37855;53.204;6.568;2023-08-17T06:56:00;9.73;;;2.13;;
51800;SDS011;37855;53.204;6.568;2023-08-17T06:58:25;8.45;;;1.73;;
51800;SDS011;37855;53.204;6.568;2023-08-17T07:00:51;2.47;;;1.20;;
51800;SDS011;37855;53.204;6.568;2023-08-17T07:03:17;7.07;;;1.60;;
51800;SDS011;37855;53.204;6.568;2023-08-17T07:05:43;4.70;;;1.48;;
51800;SDS011;37855;53.204;6.568;2023-08-17T07:08:09;5.90;;;1.50;;
51800;SDS011;37855;53.204;6.568;2023-08-17T07:10:38;7.10;;;1.60;;
51800;SDS011;37855;53.204;6.568;2023-08-17T07:13:03;8.25;;;1.80;;
51800;SDS011;37855;53.204;6.568;2023-08-17T07:15:30;4.20;;;1.40;;
51800;SDS011;37855;53.204;6.568;2023-08-17T07:17:56;6.18;;;1.65;;
51800;SDS011;37855;53.204;6.568;2023-08-17T07:20:25;6.10;;;1.70;;
51800;SDS011;37855;53.204;6.568;2023-08-17T07:22:52;9.50;;;1.77;;
51800;SDS011;37855;53.204;6.568;2023-08-17T07:25:19;6.20;;;1.40;;
51800;SDS011;37855;53.204;6.568;2023-08-17T07:27:44;7.00;;;1.40;;
51800;SDS011;37855;53.204;6.568;2023-08-17T07:30:10;7.07;;;1.63;;
51800;SDS011;37855;53.204;6.568;2023-08-17T07:32:36;3.23;;;1.27;;
51800;SDS011;37855;53.204;6.568;2023-08-17T07:35:03;5.43;;;1.70;;
51800;SDS011;37855;53.204;6.568;2023-08-17T07:37:29;6.30;;;1.65;;
51800;SDS011;37855;53.204;6.568;2023-08-17T07:39:59;6.25;;;1.90;;
51800;SDS011;37855;53.204;6.568;2023-08-17T07:42:25;4.70;;;1.65;;
51800;SDS011;37855;53.204;6.568;2023-08-17T07:44:50;5.37;;;1.60;;
51800;SDS011;37855;53.204;6.568;2023-08-17T07:47:16;9.50;;;1.80;;
51800;SDS011;37855;53.204;6.568;2023-08-17T07:49:42;5.80;;;1.67;;
51800;SDS011;37855;53.204;6.568;2023-08-17T07:52:07;6.25;;;1.60;;
51800;SDS011;37855;53.204;6.568;2023-08-17T07:54:34;3.97;;;1.20;;
51800;SDS011;37855;53.204;6.568;2023-08-17T07:56:59;4.53;;;1.30;;
51800;SDS011;37855;53.204;6.568;2023-08-17T07:59:29;7.43;;;1.60;;
51800;SDS011;37855;53.204;6.568;2023-08-17T08:01:54;4.80;;;1.77;;
51800;SDS011;37855;53.204;6.568;2023-08-17T08:04:20;3.45;;;1.30;;
51800;SDS011;37855;53.204;6.568;2023-08-17T08:06:49;4.00;;;1.05;;
51800;SDS011;37855;53.204;6.568;2023-08-17T08:09:20;6.70;;;1.40;;
51800;SDS011;37855;53.204;6.568;2023-08-17T08:11:49;5.07;;;1.30;;
51800;SDS011;37855;53.204;6.568;2023-08-17T08:14:16;4.20;;;1.30;;
51800;SDS011;37855;53.204;6.568;2023-08-17T08:16:42;3.65;;;1.42;;
51800;SDS011;37855;53.204;6.568;2023-08-17T08:19:08;6.47;;;1.47;;
51800;SDS011;37855;53.204;6.568;2023-08-17T08:21:33;5.32;;;1.50;;
51800;SDS011;37855;53.204;6.568;2023-08-17T08:23:59;3.33;;;1.33;;
51800;SDS011;37855;53.204;6.568;2023-08-17T08:26:24;6.75;;;1.45;;
51800;SDS011;37855;53.204;6.568;2023-08-17T08:28:50;4.60;;;1.63;;
51800;SDS011;37855;53.204;6.568;2023-08-17T08:31:16;3.77;;;1.30;;
51800;SDS011;37855;53.204;6.568;2023-08-17T08:33:42;4.30;;;1.30;;
51800;SDS011;37855;53.204;6.568;2023-08-17T08:36:08;6.40;;;1.50;;
51800;SDS011;37855;53.204;6.568;2023-08-17T08:38:34;6.53;;;1.65;;
51800;SDS011;37855;53.204;6.568;2023-08-17T08:41:00;4.37;;;1.60;;
51800;SDS011;37855;53.204;6.568;2023-08-17T08:43:27;8.38;;;2.13;;
51800;SDS011;37855;53.204;6.568;2023-08-17T08:45:55;7.07;;;1.70;;
51800;SDS011;37855;53.204;6.568;2023-08-17T08:48:22;2.83;;;1.30;;
51800;SDS011;37855;53.204;6.568;2023-08-17T08:50:51;6.43;;;1.40;;
51800;SDS011;37855;53.204;6.568;2023-08-17T08:53:23;5.97;;;1.50;;
51800;SDS011;37855;53.204;6.568;2023-08-17T08:55:57;4.40;;;1.40;;
51800;SDS011;37855;53.204;6.568;2023-08-17T08:58:24;5.55;;;1.63;;
51800;SDS011;37855;53.204;6.568;2023-08-17T09:00:51;5.63;;;1.40;;
51800;SDS011;37855;53.204;6.568;2023-08-17T09:03:18;5.72;;;1.67;;
51800;SDS011;37855;53.204;6.568;2023-08-17T09:05:48;6.13;;;1.40;;
51800;SDS011;37855;53.204;6.568;2023-08-17T09:08:15;6.55;;;1.67;;
51800;SDS011;37855;53.204;6.568;2023-08-17T09:10:45;4.55;;;1.60;;
51800;SDS011;37855;53.204;6.568;2023-08-17T09:13:12;4.47;;;1.30;;
51800;SDS011;37855;53.204;6.568;2023-08-17T09:15:37;4.57;;;1.20;;
51800;SDS011;37855;53.204;6.568;2023-08-17T09:18:05;8.68;;;1.70;;
51800;SDS011;37855;53.204;6.568;2023-08-17T09:20:40;8.63;;;1.52;;
51800;SDS011;37855;53.204;6.568;2023-08-17T09:25:42;5.72;;;1.23;;
51800;SDS011;37855;53.204;6.568;2023-08-17T09:28:09;6.57;;;1.48;;
51800;SDS011;37855;53.204;6.568;2023-08-17T09:30:56;5.45;;;1.40;;
51800;SDS011;37855;53.204;6.568;2023-08-17T09:33:33;6.13;;;1.45;;
51800;SDS011;37855;53.204;6.568;2023-08-17T09:36:00;5.17;;;1.50;;
51800;SDS011;37855;53.204;6.568;2023-08-17T09:38:26;7.03;;;1.88;;
51800;SDS011;37855;53.204;6.568;2023-08-17T09:40:53;4.13;;;1.50;;
51800;SDS011;37855;53.204;6.568;2023-08-17T09:43:19;5.35;;;1.27;;
51800;SDS011;37855;53.204;6.568;2023-08-17T09:45:49;2.93;;;1.30;;
51800;SDS011;37855;53.204;6.568;2023-08-17T09:48:15;5.10;;;1.38;;
51800;SDS011;37855;53.204;6.568;2023-08-17T09:50:43;5.05;;;1.52;;
51800;SDS011;37855;53.204;6.568;2023-08-17T09:53:14;7.00;;;1.60;;
51800;SDS011;37855;53.204;6.568;2023-08-17T09:55:41;5.47;;;1.50;;
51800;SDS011;37855;53.204;6.568;2023-08-17T09:58:08;6.68;;;1.40;;
51800;SDS011;37855;53.204;6.568;2023-08-17T10:00:37;4.13;;;1.58;;
51800;SDS011;37855;53.204;6.568;2023-08-17T10:03:04;4.65;;;1.40;;
51800;SDS011;37855;53.204;6.568;2023-08-17T10:05:31;4.93;;;1.57;;
51800;SDS011;37855;53.204;6.568;2023-08-17T10:08:03;5.50;;;1.67;;
51800;SDS011;37855;53.204;6.568;2023-08-17T10:10:31;4.53;;;1.40;;
51800;SDS011;37855;53.204;6.568;2023-08-17T10:13:01;3.35;;;1.38;;
51800;SDS011;37855;53.204;6.568;2023-08-17T10:16:10;6.85;;;1.77;;
51800;SDS011;37855;53.204;6.568;2023-08-17T10:21:23;16.27;;;1.88;;
51800;SDS011;37855;53.204;6.568;2023-08-17T10:23:57;4.47;;;1.40;;
51800;SDS011;37855;53.204;6.568;2023-08-17T10:26:23;5.47;;;1.42;;
51800;SDS011;37855;53.204;6.568;2023-08-17T10:28:50;4.80;;;1.65;;
51800;SDS011;37855;53.204;6.568;2023-08-17T10:31:17;5.63;;;1.40;;
51800;SDS011;37855;53.204;6.568;2023-08-17T10:33:42;9.27;;;1.67;;
51800;SDS011;37855;53.204;6.568;2023-08-17T10:36:12;4.75;;;1.40;;
51800;SDS011;37855;53.204;6.568;2023-08-17T10:38:39;5.80;;;1.50;;
51800;SDS011;37855;53.204;6.568;2023-08-17T10:43:34;6.85;;;1.80;;
51800;SDS011;37855;53.204;6.568;2023-08-17T10:46:15;4.40;;;1.63;;
51800;SDS011;37855;53.204;6.568;2023-08-17T10:48:44;6.07;;;1.63;;
51800;SDS011;37855;53.204;6.568;2023-08-17T10:51:13;6.97;;;1.95;;
51800;SDS011;37855;53.204;6.568;2023-08-17T10:53:39;8.20;;;1.70;;
51800;SDS011;37855;53.204;6.568;2023-08-17T10:56:10;9.60;;;1.73;;
51800;SDS011;37855;53.204;6.568;2023-08-17T10:58:38;7.13;;;1.88;;
51800;SDS011;37855;53.204;6.568;2023-08-17T11:01:04;5.43;;;1.77;;
51800;SDS011;37855;53.204;6.568;2023-08-17T11:03:30;6.18;;;1.63;;
51800;SDS011;37855;53.204;6.568;2023-08-17T11:05:56;7.57;;;2.22;;
51800;SDS011;37855;53.204;6.568;2023-08-17T11:08:33;9.43;;;1.73;;
51800;SDS011;37855;53.204;6.568;2023-08-17T11:11:08;5.85;;;1.63;;
51800;SDS011;37855;53.204;6.568;2023-08-17T11:13:40;5.93;;;1.60;;
51800;SDS011;37855;53.204;6.568;2023-08-17T11:16:11;8.13;;;2.03;;
51800;SDS011;37855;53.204;6.568;2023-08-17T11:18:40;5.75;;;1.60;;
51800;SDS011;37855;53.204;6.568;2023-08-17T11:21:09;5.47;;;1.90;;
51800;SDS011;37855;53.204;6.568;2023-08-17T11:23:37;7.18;;;1.95;;
51800;SDS011;37855;53.204;6.568;2023-08-17T11:26:03;6.85;;;1.88;;
51800;SDS011;37855;53.204;6.568;2023-08-17T11:28:30;5.70;;;2.03;;
51800;SDS011;37855;53.204;6.568;2023-08-17T11:31:04;6.45;;;2.35;;
51800;SDS011;37855;53.204;6.568;2023-08-17T11:33:31;6.17;;;2.67;;
51800;SDS011;37855;53.204;6.568;2023-08-17T11:35:59;6.30;;;1.88;;
51800;SDS011;37855;53.204;6.568;2023-08-17T11:38:29;4.88;;;2.05;;
51800;SDS011;37855;53.204;6.568;2023-08-17T11:40:57;5.13;;;1.80;;
51800;SDS011;37855;53.204;6.568;2023-08-17T11:43:23;8.90;;;2.13;;
51800;SDS011;37855;53.204;6.568;2023-08-17T11:45:51;7.97;;;1.77;;
51800;SDS011;37855;53.204;6.568;2023-08-17T11:48:20;7.13;;;1.90;;
51800;SDS011;37855;53.204;6.568;2023-08-17T11:50:46;6.15;;;1.95;;
51800;SDS011;37855;53.204;6.568;2023-08-17T11:53:11;7.13;;;2.10;;
51800;SDS011;37855;53.204;6.568;2023-08-17T11:55:37;7.03;;;2.30;;
51800;SDS011;37855;53.204;6.568;2023-08-17T11:58:03;7.93;;;2.47;;
51800;SDS011;37855;53.204;6.568;2023-08-17T12:00:34;6.80;;;2.00;;
51800;SDS011;37855;53.204;6.568;2023-08-17T12:03:02;6.68;;;2.25;;
51800;SDS011;37855;53.204;6.568;2023-08-17T12:05:30;7.88;;;2.05;;
51800;SDS011;37855;53.204;6.568;2023-08-17T12:07:59;6.57;;;1.90;;
51800;SDS011;37855;53.204;6.568;2023-08-17T12:10:32;5.63;;;2.10;;
51800;SDS011;37855;53.204;6.568;2023-08-17T12:12:59;5.47;;;1.98;;
51800;SDS011;37855;53.204;6.568;2023-08-17T12:15:29;8.00;;;2.28;;
51800;SDS011;37855;53.204;6.568;2023-08-17T12:17:58;6.28;;;1.90;;
51800;SDS011;37855;53.204;6.568;2023-08-17T12:20:24;7.53;;;2.22;;
51800;SDS011;37855;53.204;6.568;2023-08-17T12:22:50;7.50;;;2.27;;
51800;SDS011;37855;53.204;6.568;2023-08-17T12:25:20;5.20;;;2.25;;
51800;SDS011;37855;53.204;6.568;2023-08-17T12:27:48;8.43;;;2.30;;
51800;SDS011;37855;53.204;6.568;2023-08-17T12:30:20;8.48;;;2.22;;
51800;SDS011;37855;53.204;6.568;2023-08-17T12:32:52;5.85;;;1.98;;
51800;SDS011;37855;53.204;6.568;2023-08-17T12:35:19;6.57;;;2.03;;
51800;SDS011;37855;53.204;6.568;2023-08-17T12:37:48;5.03;;;2.03;;
51800;SDS011;37855;53.204;6.568;2023-08-17T12:40:14;7.00;;;2.00;;
51800;SDS011;37855;53.204;6.568;2023-08-17T12:42:39;6.27;;;2.10;;
51800;SDS011;37855;53.204;6.568;2023-08-17T12:45:05;6.20;;;2.20;;
51800;SDS011;37855;53.204;6.568;2023-08-17T12:47:31;7.63;;;2.38;;
51800;SDS011;37855;53.204;6.568;2023-08-17T12:49:57;10.20;;;2.67;;
51800;SDS011;37855;53.204;6.568;2023-08-17T12:52:23;9.73;;;2.60;;
51800;SDS011;37855;53.204;6.568;2023-08-17T12:54:48;8.37;;;2.63;;
51800;SDS011;37855;53.204;6.568;2023-08-17T12:57:14;5.82;;;2.08;;
51800;SDS011;37855;53.204;6.568;2023-08-17T12:59:41;10.00;;;2.50;;
51800;SDS011;37855;53.204;6.568;2023-08-17T13:02:10;6.32;;;2.30;;
51800;SDS011;37855;53.204;6.568;2023-08-17T13:04:39;8.50;;;2.40;;
51800;SDS011;37855;53.204;6.568;2023-08-17T13:07:08;5.67;;;2.23;;
51800;SDS011;37855;53.204;6.568;2023-08-17T13:09:36;7.40;;;2.20;;
51800;SDS011;37855;53.204;6.568;2023-08-17T13:12:02;6.13;;;2.17;;
51800;SDS011;37855;53.204;6.568;2023-08-17T13:14:28;7.03;;;2.47;;
51800;SDS011;37855;53.204;6.568;2023-08-17T13:16:54;5.53;;;2.10;;
51800;SDS011;37855;53.204;6.568;2023-08-17T13:19:20;8.05;;;2.35;;
51800;SDS011;37855;53.204;6.568;2023-08-17T13:21:46;6.43;;;2.00;;
51800;SDS011;37855;53.204;6.568;2023-08-17T13:24:12;9.48;;;2.22;;
51800;SDS011;37855;53.204;6.568;2023-08-17T13:26:38;5.93;;;2.22;;
51800;SDS011;37855;53.204;6.568;2023-08-17T13:29:04;6.33;;;2.13;;
51800;SDS011;37855;53.204;6.568;2023-08-17T13:31:33;6.03;;;2.20;;
51800;SDS011;37855;53.204;6.568;2023-08-17T13:33:58;6.35;;;2.10;;
51800;SDS011;37855;53.204;6.568;2023-08-17T13:36:24;7.80;;;2.10;;
51800;SDS011;37855;53.204;6.568;2023-08-17T13:38:50;9.27;;;2.20;;
51800;SDS011;37855;53.204;6.568;2023-08-17T13:41:15;7.10;;;2.10;;
51800;SDS011;37855;53.204;6.568;2023-08-17T13:43:41;8.18;;;2.42;;
51800;SDS011;37855;53.204;6.568;2023-08-17T13:46:07;5.50;;;2.20;;
51800;SDS011;37855;53.204;6.568;2023-08-17T13:48:33;6.43;;;2.20;;
51800;SDS011;37855;53.204;6.568;2023-08-17T13:50:58;8.00;;;2.10;;
51800;SDS011;37855;53.204;6.568;2023-08-17T13:53:24;7.07;;;2.03;;
51800;SDS011;37855;53.204;6.568;2023-08-17T13:55:49;6.43;;;2.30;;
51800;SDS011;37855;53.204;6.568;2023-08-17T13:58:15;6.95;;;2.42;;
51800;SDS011;37855;53.204;6.568;2023-08-17T14:00:41;6.53;;;2.20;;
51800;SDS011;37855;53.204;6.568;2023-08-17T14:03:10;6.43;;;2.28;;
51800;SDS011;37855;53.204;6.568;2023-08-17T14:05:36;9.23;;;2.47;;
51800;SDS011;37855;53.204;6.568;2023-08-17T14:08:04;9.23;;;2.00;;
51800;SDS011;37855;53.204;6.568;2023-08-17T14:10:31;7.05;;;2.45;;
51800;SDS011;37855;53.204;6.568;2023-08-17T14:13:04;9.15;;;2.70;;
51800;SDS011;37855;53.204;6.568;2023-08-17T14:15:31;7.18;;;2.58;;
51800;SDS011;37855;53.204;6.568;2023-08-17T14:17:57;7.80;;;2.33;;
51800;SDS011;37855;53.204;6.568;2023-08-17T14:20:22;6.22;;;2.47;;
51800;SDS011;37855;53.204;6.568;2023-08-17T14:22:48;7.43;;;2.37;;
51800;SDS011;37855;53.204;6.568;2023-08-17T14:25:14;7.70;;;2.40;;
51800;SDS011;37855;53.204;6.568;2023-08-17T14:27:43;6.80;;;2.30;;
51800;SDS011;37855;53.204;6.568;2023-08-17T14:30:09;9.15;;;2.60;;
51800;SDS011;37855;53.204;6.568;2023-08-17T14:32:35;8.00;;;2.58;;
51800;SDS011;37855;53.204;6.568;2023-08-17T14:35:01;8.17;;;2.43;;
51800;SDS011;37855;53.204;6.568;2023-08-17T14:37:27;8.10;;;2.60;;
51800;SDS011;37855;53.204;6.568;2023-08-17T14:39:52;6.37;;;2.10;;
51800;SDS011;37855;53.204;6.568;2023-08-17T14:42:18;10.15;;;2.67;;
51800;SDS011;37855;53.204;6.568;2023-08-17T14:44:44;8.20;;;2.13;;
51800;SDS011;37855;53.204;6.568;2023-08-17T14:47:12;6.97;;;2.30;;
51800;SDS011;37855;53.204;6.568;2023-08-17T14:49:38;8.30;;;2.70;;
51800;SDS011;37855;53.204;6.568;2023-08-17T14:52:04;7.28;;;2.88;;
51800;SDS011;37855;53.204;6.568;2023-08-17T14:54:30;7.93;;;2.80;;
51800;SDS011;37855;53.204;6.568;2023-08-17T14:56:55;7.53;;;2.53;;